Steelmantown, New Jersey
Current Conditions -  °F | °C
As of 9:54 PM on Saturday 22 Nov 2014 (Local Time) from KMIV Reporting Station
Broken Clouds Broken Clouds  
Wind Chill: 37°   Ceiling: 11000
Heat Index: 40°   Visibility: 10mi
Dew Point: 26°   Wind: 5mph
Humidity: 58%   Direction: NA
Pressure: 30.29"   Gusts: NA
Location:  39.2589°N, 74.8124°W
Report Text: KMIV 230254Z AUTO VRB04KT 10SM BKN110 04/M03 A3029 RMK AO2 SLP256 T00441033 58010
Loading
Personal Weather Stations






























Interactive Weather Map New forecast layout! Learn more

10-Day Weather Forecast

Advertisements
Track Severe Weather on mobile